Pocono Lake, Pennsylvania
Current Conditions -  °F | °C
As of 8:13 AM on Wednesday 22 Oct 2014 (Local Time) from KMPO Reporting Station
Light Rain Light Rain  
Wind Chill: 46°   Ceiling: 700
Heat Index: 49°   Visibility: 6mi
Dew Point: 46°   Wind: 7mph
Humidity: 90%   Direction: 20°NNE
Pressure: 29.96"   Gusts: NA
Location:  41.09°N, 75.58°W
Report Text: KMPO 221213Z AUTO 02006KT 6SM -RA BR BKN007 OVC011 09/08 A2996 RMK AO2 CIG 005V009 T00940078 TSNO PNO $
Loading
Personal Weather Stations






























Interactive Weather Map
Tropical Storm Tracking
New forecast layout! Learn more

10-Day Weather Forecast

Advertisements
Track Severe Weather on mobile